createdAt,value
2023-05-13T00:00:10.821Z,6.90
2023-05-13T00:02:59.849Z,6.85
2023-05-13T00:05:28.600Z,6.28
2023-05-13T00:08:02.000Z,6.43
2023-05-13T00:10:32.239Z,7.00
2023-05-13T00:13:01.272Z,6.70
2023-05-13T00:15:30.669Z,6.90
2023-05-13T00:17:59.718Z,6.65
2023-05-13T00:20:28.430Z,6.53
2023-05-13T00:22:57.416Z,7.50
2023-05-13T00:25:26.047Z,6.72
2023-05-13T00:27:56.961Z,7.10
2023-05-13T00:30:25.784Z,6.82
2023-05-13T00:32:55.007Z,6.60
2023-05-13T00:35:23.860Z,6.88
2023-05-13T00:37:52.973Z,6.60
2023-05-13T00:40:25.636Z,6.40
2023-05-13T00:42:56.383Z,7.28
2023-05-13T00:45:25.090Z,6.68
2023-05-13T00:47:54.272Z,6.93
2023-05-13T00:50:23.937Z,6.68
2023-05-13T00:52:53.450Z,7.57
2023-05-13T00:55:22.530Z,7.45
2023-05-13T00:57:51.544Z,7.28
2023-05-13T01:00:22.285Z,7.22
2023-05-13T01:03:01.781Z,7.43
2023-05-13T01:05:43.863Z,7.28
2023-05-13T01:08:30.410Z,7.53
2023-05-13T01:11:04.972Z,6.85
2023-05-13T01:13:43.257Z,7.80
2023-05-13T01:16:23.294Z,7.85
2023-05-13T01:18:59.736Z,7.53
2023-05-13T01:21:30.205Z,7.68
2023-05-13T01:23:59.634Z,8.15
2023-05-13T01:26:28.846Z,7.28
2023-05-13T01:28:58.399Z,7.72
2023-05-13T01:31:27.339Z,8.35
2023-05-13T01:33:56.485Z,8.20
2023-05-13T01:36:25.864Z,7.55
2023-05-13T01:38:58.438Z,8.65
2023-05-13T01:41:29.463Z,9.07
2023-05-13T01:43:58.779Z,7.65
2023-05-13T01:46:27.998Z,8.30
2023-05-13T01:48:57.345Z,8.18
2023-05-13T01:51:26.221Z,9.02
2023-05-13T01:53:56.628Z,8.25
2023-05-13T01:56:26.209Z,8.52
2023-05-13T01:58:55.465Z,8.13
2023-05-13T02:01:24.162Z,7.57
2023-05-13T02:03:54.796Z,8.20
2023-05-13T02:06:23.545Z,8.50
2023-05-13T02:08:52.636Z,8.73
2023-05-13T02:11:23.079Z,8.63
2023-05-13T02:13:52.084Z,8.52
2023-05-13T02:16:21.808Z,8.57
2023-05-13T02:18:51.655Z,8.73
2023-05-13T02:21:20.697Z,8.95
2023-05-13T02:23:50.094Z,8.70
2023-05-13T02:26:18.734Z,10.13
2023-05-13T02:28:49.490Z,9.40
2023-05-13T02:31:18.486Z,9.10
2023-05-13T02:33:48.117Z,9.30
2023-05-13T02:36:17.304Z,8.88
2023-05-13T02:38:46.742Z,8.55
2023-05-13T02:41:18.218Z,8.50
2023-05-13T02:43:48.570Z,9.65
2023-05-13T02:46:17.391Z,9.00
2023-05-13T02:48:47.365Z,8.80
2023-05-13T02:51:16.105Z,9.23
2023-05-13T02:53:45.501Z,8.63
2023-05-13T02:56:16.321Z,9.20
2023-05-13T02:58:45.452Z,9.13
2023-05-13T03:01:15.519Z,9.40
2023-05-13T03:03:44.554Z,9.30
2023-05-13T03:06:13.706Z,10.45
2023-05-13T03:08:42.622Z,8.90
2023-05-13T03:11:11.757Z,9.23
2023-05-13T03:13:41.363Z,9.60
2023-05-13T03:16:10.200Z,9.52
2023-05-13T03:18:40.806Z,10.15
2023-05-13T03:21:09.549Z,9.80
2023-05-13T03:23:38.683Z,10.40
2023-05-13T03:26:08.143Z,10.10
2023-05-13T03:28:37.201Z,9.70
2023-05-13T03:31:06.643Z,11.00
2023-05-13T03:33:40.732Z,9.90
2023-05-13T03:36:10.044Z,9.95
2023-05-13T03:38:39.148Z,11.85
2023-05-13T03:41:07.901Z,11.07
2023-05-13T03:43:36.999Z,11.57
2023-05-13T03:46:11.112Z,9.68
2023-05-13T03:48:41.520Z,9.63
2023-05-13T03:51:10.182Z,11.32
2023-05-13T03:53:39.295Z,12.13
2023-05-13T03:56:08.160Z,11.23
2023-05-13T03:58:37.207Z,10.00
2023-05-13T04:01:06.578Z,9.82
2023-05-13T04:03:35.954Z,10.00
2023-05-13T04:06:06.342Z,10.63
2023-05-13T04:08:35.359Z,10.13
2023-05-13T04:11:04.020Z,9.55
2023-05-13T04:13:36.822Z,10.57
2023-05-13T04:16:05.927Z,10.10
2023-05-13T04:18:35.718Z,9.85
2023-05-13T04:21:09.224Z,10.95
2023-05-13T04:23:38.166Z,10.45
2023-05-13T04:26:06.856Z,10.68
2023-05-13T04:28:36.480Z,10.43
2023-05-13T04:31:05.320Z,11.60
2023-05-13T04:33:37.588Z,10.75
2023-05-13T04:36:08.380Z,10.45
2023-05-13T04:38:38.090Z,10.63
2023-05-13T04:41:07.581Z,10.50
2023-05-13T04:43:41.672Z,10.77
2023-05-13T04:46:10.516Z,11.25
2023-05-13T04:48:40.307Z,10.90
2023-05-13T04:51:10.805Z,11.30
2023-05-13T04:53:40.222Z,11.18
2023-05-13T04:56:10.814Z,11.57
2023-05-13T04:58:40.093Z,11.02
2023-05-13T05:01:09.926Z,11.65
2023-05-13T05:03:38.943Z,12.00
2023-05-13T05:06:08.198Z,10.98
2023-05-13T05:08:38.542Z,11.95
2023-05-13T05:11:07.340Z,10.75
2023-05-13T05:13:37.973Z,11.50
2023-05-13T05:16:08.703Z,11.68
2023-05-13T05:18:38.266Z,11.30
2023-05-13T05:21:07.316Z,11.98
2023-05-13T05:23:36.295Z,10.50
2023-05-13T05:26:11.715Z,11.20
2023-05-13T05:28:44.644Z,10.30
2023-05-13T05:31:14.841Z,9.15
2023-05-13T05:33:45.353Z,9.93
2023-05-13T05:36:14.136Z,9.43
2023-05-13T05:38:43.177Z,9.73
2023-05-13T05:41:15.059Z,9.95
2023-05-13T05:43:44.471Z,9.85
2023-05-13T05:46:13.168Z,9.63
2023-05-13T05:48:42.219Z,9.48
2023-05-13T05:51:10.961Z,9.30
2023-05-13T05:53:41.160Z,9.38
2023-05-13T05:56:14.451Z,9.27
2023-05-13T05:58:44.438Z,9.93
2023-05-13T06:01:13.752Z,10.65
2023-05-13T06:03:42.961Z,10.13
2023-05-13T06:06:11.732Z,9.90
2023-05-13T06:08:40.737Z,8.80
2023-05-13T06:11:10.044Z,8.77
2023-05-13T06:13:40.473Z,8.60
2023-05-13T06:16:09.371Z,8.75
2023-05-13T06:18:40.360Z,7.55
2023-05-13T06:21:09.247Z,8.07
2023-05-13T06:23:38.760Z,7.65
2023-05-13T06:26:07.675Z,8.25
2023-05-13T06:28:38.919Z,6.70
2023-05-13T06:31:07.730Z,5.82
2023-05-13T06:33:36.705Z,6.03
2023-05-13T06:36:06.372Z,5.30
2023-05-13T06:38:36.650Z,5.53
2023-05-13T06:41:06.290Z,5.85
2023-05-13T06:43:38.883Z,5.63
2023-05-13T06:46:23.031Z,5.13
2023-05-13T06:48:53.758Z,4.90
2023-05-13T06:51:22.548Z,5.28
2023-05-13T06:53:51.512Z,5.40
2023-05-13T06:56:20.580Z,5.35
2023-05-13T06:58:51.450Z,4.07
2023-05-13T07:01:20.742Z,4.05
2023-05-13T07:03:50.461Z,4.47
2023-05-13T07:06:19.301Z,4.30
2023-05-13T07:08:48.218Z,5.07
2023-05-13T07:11:16.902Z,5.10
2023-05-13T07:13:46.772Z,4.70
2023-05-13T07:16:18.327Z,3.72
2023-05-13T07:18:47.375Z,3.50
2023-05-13T07:21:16.659Z,4.15
2023-05-13T07:23:45.721Z,4.05
2023-05-13T07:26:14.533Z,3.63
2023-05-13T07:28:43.566Z,3.85
2023-05-13T07:31:12.421Z,4.15
2023-05-13T07:33:43.034Z,3.65
2023-05-13T07:36:11.708Z,3.75
2023-05-13T07:38:40.641Z,3.50
2023-05-13T07:41:09.343Z,3.50
2023-05-13T07:43:40.543Z,3.10
2023-05-13T07:46:10.760Z,3.47
2023-05-13T07:48:39.794Z,3.10
2023-05-13T07:51:10.633Z,2.95
2023-05-13T07:53:39.755Z,3.55
2023-05-13T07:56:08.598Z,3.17
2023-05-13T07:58:37.745Z,3.13
2023-05-13T08:01:08.140Z,2.85
2023-05-13T08:03:37.330Z,3.47
2023-05-13T08:06:06.939Z,3.60
2023-05-13T08:08:37.271Z,3.17
2023-05-13T08:11:06.456Z,2.97
2023-05-13T08:13:35.503Z,3.25
2023-05-13T08:16:04.732Z,3.30
2023-05-13T08:18:33.872Z,3.40
2023-05-13T08:21:02.551Z,3.10
2023-05-13T08:23:44.259Z,2.83
2023-05-13T08:26:15.319Z,3.10
2023-05-13T08:28:44.383Z,2.72
2023-05-13T08:31:14.310Z,3.20
2023-05-13T08:33:46.024Z,3.42
2023-05-13T08:36:16.443Z,2.90
2023-05-13T08:38:45.605Z,3.10
2023-05-13T08:41:16.520Z,2.97
2023-05-13T08:43:47.974Z,2.85
2023-05-13T08:46:19.628Z,3.45
2023-05-13T08:48:49.892Z,3.00
2023-05-13T08:51:18.817Z,4.03
2023-05-13T08:53:49.607Z,4.05
2023-05-13T08:56:19.759Z,3.60
2023-05-13T08:58:48.746Z,2.95
2023-05-13T09:01:18.354Z,2.80
2023-05-13T09:04:03.271Z,2.58
2023-05-13T09:06:32.441Z,2.40
2023-05-13T09:09:02.998Z,3.08
2023-05-13T09:11:34.806Z,3.03
2023-05-13T09:14:07.266Z,2.58
2023-05-13T09:16:36.480Z,2.60
2023-05-13T09:19:08.070Z,3.00
2023-05-13T09:21:37.199Z,2.60
2023-05-13T09:24:11.917Z,2.33
2023-05-13T09:26:43.417Z,2.10
2023-05-13T09:29:26.643Z,2.00
2023-05-13T09:31:58.146Z,1.90
2023-05-13T09:34:29.998Z,2.15
2023-05-13T09:37:02.741Z,2.30
2023-05-13T09:39:34.711Z,2.03
2023-05-13T09:42:05.724Z,2.20
2023-05-13T09:44:35.140Z,2.55
2023-05-13T09:47:04.501Z,2.10
2023-05-13T09:49:33.618Z,2.15
2023-05-13T09:52:02.256Z,2.15
2023-05-13T09:54:37.086Z,2.30
2023-05-13T09:57:08.087Z,2.00
2023-05-13T09:59:37.103Z,1.88
2023-05-13T10:02:08.893Z,2.17
2023-05-13T10:04:38.605Z,2.20
2023-05-13T10:07:10.000Z,1.95
2023-05-13T10:09:41.092Z,2.08
2023-05-13T10:12:16.028Z,2.20
2023-05-13T10:14:45.491Z,2.08
2023-05-13T10:17:15.215Z,2.20
2023-05-13T10:19:44.980Z,2.28
2023-05-13T10:22:16.116Z,2.45
2023-05-13T10:24:45.520Z,2.38
2023-05-13T10:27:16.966Z,2.50
2023-05-13T10:29:47.695Z,2.17
2023-05-13T10:32:16.707Z,2.70
2023-05-13T10:34:47.529Z,2.58
2023-05-13T10:37:56.320Z,2.22
2023-05-13T10:40:55.015Z,1.98
2023-05-13T10:43:28.744Z,2.25
2023-05-13T10:46:01.551Z,2.00
2023-05-13T10:48:41.865Z,2.22
2023-05-13T10:51:15.731Z,2.30
2023-05-13T10:53:50.450Z,2.55
2023-05-13T10:56:24.313Z,2.35
2023-05-13T10:59:02.493Z,2.42
2023-05-13T11:01:36.389Z,2.50
2023-05-13T11:04:07.117Z,2.50
2023-05-13T11:06:38.935Z,2.33
2023-05-13T11:09:09.815Z,2.40
2023-05-13T11:11:39.301Z,2.55
2023-05-13T11:14:17.321Z,2.38
2023-05-13T11:16:55.181Z,2.30
2023-05-13T11:19:28.161Z,2.53
2023-05-13T11:21:58.990Z,2.42
2023-05-13T11:24:28.110Z,2.55
2023-05-13T11:27:00.013Z,2.30
2023-05-13T11:29:32.456Z,2.47
2023-05-13T11:32:04.360Z,2.20
2023-05-13T11:34:34.869Z,2.20
2023-05-13T11:37:12.095Z,2.10
2023-05-13T11:39:42.469Z,2.13
2023-05-13T11:42:12.944Z,2.35
2023-05-13T11:44:48.388Z,1.83
2023-05-13T11:47:28.457Z,2.38
2023-05-13T11:49:57.360Z,2.25
2023-05-13T11:52:26.406Z,2.30
2023-05-13T11:54:57.436Z,2.33
2023-05-13T11:57:28.969Z,2.00
2023-05-13T12:00:00.878Z,2.20
2023-05-13T12:02:31.870Z,2.40
2023-05-13T12:05:04.476Z,2.13
2023-05-13T12:07:35.078Z,2.10
2023-05-13T12:10:06.399Z,2.40
2023-05-13T12:12:40.419Z,2.25
2023-05-13T12:15:14.369Z,2.38
2023-05-13T12:17:44.030Z,2.35
2023-05-13T12:20:15.388Z,2.70
2023-05-13T12:22:54.316Z,2.17
2023-05-13T12:25:47.700Z,2.13
2023-05-13T12:28:18.971Z,2.50
2023-05-13T12:30:57.144Z,2.10
2023-05-13T12:33:28.996Z,2.53
2023-05-13T12:36:19.998Z,2.40
2023-05-13T12:39:01.057Z,2.10
2023-05-13T12:41:32.608Z,2.15
2023-05-13T12:44:04.011Z,1.90
2023-05-13T12:46:35.050Z,2.13
2023-05-13T12:49:06.271Z,2.28
2023-05-13T12:51:35.011Z,2.17
2023-05-13T12:54:04.049Z,2.40
2023-05-13T12:56:33.048Z,2.03
2023-05-13T12:59:02.013Z,2.28
2023-05-13T13:01:30.892Z,2.22
2023-05-13T13:04:01.481Z,2.28
2023-05-13T13:06:31.101Z,2.20
2023-05-13T13:09:00.282Z,2.20
2023-05-13T13:11:30.016Z,2.15
2023-05-13T13:13:59.010Z,2.30
2023-05-13T13:16:27.715Z,2.30
2023-05-13T13:19:01.505Z,2.13
2023-05-13T13:21:32.202Z,1.92
2023-05-13T13:24:01.223Z,2.03
2023-05-13T13:26:29.922Z,1.90
2023-05-13T13:28:58.898Z,2.15
2023-05-13T13:31:27.663Z,2.08
2023-05-13T13:33:58.964Z,2.22
2023-05-13T13:36:27.805Z,1.90
2023-05-13T13:38:58.063Z,1.90
2023-05-13T13:41:26.859Z,1.83
2023-05-13T13:43:55.928Z,2.42
2023-05-13T13:46:24.633Z,2.10
2023-05-13T13:48:53.660Z,1.90
2023-05-13T13:51:23.132Z,2.15
2023-05-13T13:53:52.269Z,2.17
2023-05-13T13:56:22.402Z,2.17
2023-05-13T13:58:51.302Z,2.10
2023-05-13T14:01:20.107Z,2.03
2023-05-13T14:03:52.038Z,1.92
2023-05-13T14:06:21.286Z,2.47
2023-05-13T14:08:51.847Z,1.98
2023-05-13T14:11:21.991Z,2.42
2023-05-13T14:13:51.047Z,2.30
2023-05-13T14:16:19.876Z,1.90
2023-05-13T14:18:48.954Z,2.20
2023-05-13T14:21:18.237Z,2.40
2023-05-13T14:23:47.229Z,2.38
2023-05-13T14:26:16.241Z,1.80
2023-05-13T14:28:47.002Z,1.88
2023-05-13T14:31:15.915Z,1.98
2023-05-13T14:33:45.281Z,2.13
2023-05-13T14:36:16.236Z,1.83
2023-05-13T14:38:45.372Z,1.95
2023-05-13T14:41:19.706Z,1.95
2023-05-13T14:43:50.452Z,2.08
2023-05-13T14:46:19.361Z,2.95
2023-05-13T14:48:48.269Z,2.35
2023-05-13T14:51:17.743Z,2.28
2023-05-13T14:53:46.929Z,1.95
2023-05-13T14:56:15.771Z,2.10
2023-05-13T14:58:44.953Z,2.20
2023-05-13T15:01:15.232Z,2.30
2023-05-13T15:03:44.140Z,2.65
2023-05-13T15:06:12.955Z,2.30
2023-05-13T15:08:41.873Z,2.30
2023-05-13T15:11:10.510Z,1.90
2023-05-13T15:13:39.403Z,2.30
2023-05-13T15:16:09.020Z,2.40
2023-05-13T15:18:39.153Z,2.70
2023-05-13T15:21:08.247Z,3.72
2023-05-13T15:23:36.933Z,2.50
2023-05-13T15:26:06.101Z,2.58
2023-05-13T15:28:34.755Z,2.80
2023-05-13T15:31:03.858Z,2.50
2023-05-13T15:33:33.155Z,2.70
2023-05-13T15:36:03.554Z,17.10
2023-05-13T15:38:32.517Z,3.97
2023-05-13T15:41:03.549Z,3.22
2023-05-13T15:43:34.200Z,3.83
2023-05-13T15:46:03.502Z,2.58
2023-05-13T15:48:32.322Z,2.20
2023-05-13T15:51:03.537Z,2.13
2023-05-13T15:53:33.809Z,2.30
2023-05-13T15:56:02.801Z,2.10
2023-05-13T15:58:31.900Z,2.17
2023-05-13T16:01:00.861Z,2.65
2023-05-13T16:03:29.541Z,2.40
2023-05-13T16:05:58.497Z,2.58
2023-05-13T16:08:27.438Z,2.28
2023-05-13T16:10:57.800Z,2.45
2023-05-13T16:13:26.482Z,2.05
2023-05-13T16:15:55.747Z,2.30
2023-05-13T16:18:24.930Z,2.10
2023-05-13T16:20:54.915Z,2.42
2023-05-13T16:23:23.585Z,2.78
2023-05-13T16:25:52.615Z,2.50
2023-05-13T16:28:22.655Z,2.53
2023-05-13T16:30:52.267Z,2.05
2023-05-13T16:33:20.993Z,1.98
2023-05-13T16:35:50.219Z,2.08
2023-05-13T16:38:19.075Z,2.20
2023-05-13T16:40:48.006Z,2.00
2023-05-13T16:43:16.776Z,1.80
2023-05-13T16:45:47.236Z,2.00
2023-05-13T16:48:16.174Z,1.90
2023-05-13T16:50:45.491Z,2.03
2023-05-13T16:53:14.234Z,2.08
2023-05-13T16:55:43.264Z,2.45
2023-05-13T16:58:11.944Z,2.20
2023-05-13T17:00:40.943Z,2.20
2023-05-13T17:03:13.376Z,2.13
2023-05-13T17:05:42.679Z,2.30
2023-05-13T17:08:11.467Z,2.50
2023-05-13T17:10:40.541Z,2.30
2023-05-13T17:13:09.758Z,2.10
2023-05-13T17:15:38.644Z,1.85
2023-05-13T17:18:07.488Z,2.53
2023-05-13T17:20:37.955Z,2.55
2023-05-13T17:23:06.772Z,2.20
2023-05-13T17:25:35.812Z,2.70
2023-05-13T17:28:08.019Z,2.15
2023-05-13T17:30:37.079Z,2.42
2023-05-13T17:33:06.173Z,2.35
2023-05-13T17:35:35.370Z,2.17
2023-05-13T17:38:05.506Z,2.00
2023-05-13T17:40:34.588Z,2.05
2023-05-13T17:43:04.076Z,2.20
2023-05-13T17:45:35.609Z,2.30
2023-05-13T17:48:05.130Z,2.25
2023-05-13T17:50:34.301Z,2.00
2023-05-13T17:53:04.533Z,1.88
2023-05-13T17:55:33.604Z,2.20
2023-05-13T17:58:02.372Z,2.58
2023-05-13T18:00:31.398Z,1.90
2023-05-13T18:03:00.059Z,2.35
2023-05-13T18:05:29.272Z,2.38
2023-05-13T18:07:58.176Z,2.20
2023-05-13T18:10:29.050Z,2.30
2023-05-13T18:12:57.930Z,2.55
2023-05-13T18:15:26.918Z,2.65
2023-05-13T18:17:55.765Z,2.25
2023-05-13T18:20:25.322Z,2.20
2023-05-13T18:22:54.210Z,2.33
2023-05-13T18:25:23.267Z,2.50
2023-05-13T18:27:53.691Z,2.40
2023-05-13T18:30:22.846Z,2.47
2023-05-13T18:32:51.833Z,2.80
2023-05-13T18:35:21.560Z,2.55
2023-05-13T18:37:50.495Z,2.70
2023-05-13T18:40:19.598Z,3.03
2023-05-13T18:42:48.465Z,2.15
2023-05-13T18:45:19.015Z,2.80
2023-05-13T18:47:47.813Z,2.70
2023-05-13T18:50:16.748Z,3.10
2023-05-13T18:52:46.093Z,3.90
2023-05-13T18:55:15.118Z,3.53
2023-05-13T18:57:43.900Z,3.50
2023-05-13T19:00:14.022Z,4.55
2023-05-13T19:02:44.329Z,6.82
2023-05-13T19:05:13.656Z,7.43
2023-05-13T19:07:42.392Z,6.43
2023-05-13T19:10:12.100Z,7.35
2023-05-13T19:12:41.071Z,8.10
2023-05-13T19:15:11.484Z,7.32
2023-05-13T19:17:41.806Z,9.98
2023-05-13T19:20:13.542Z,10.95
2023-05-13T19:22:42.263Z,13.57
2023-05-13T19:25:11.506Z,12.43
2023-05-13T19:27:40.681Z,9.93
2023-05-13T19:30:11.243Z,10.10
2023-05-13T19:32:39.937Z,8.23
2023-05-13T19:35:11.586Z,7.00
2023-05-13T19:37:40.404Z,6.63
2023-05-13T19:40:11.113Z,4.75
2023-05-13T19:42:39.831Z,4.20
2023-05-13T19:45:10.682Z,4.32
2023-05-13T19:47:39.731Z,4.55
2023-05-13T19:50:09.563Z,4.43
2023-05-13T19:52:43.599Z,4.03
2023-05-13T19:55:13.220Z,4.10
2023-05-13T19:57:43.534Z,4.07
2023-05-13T20:00:13.898Z,4.20
2023-05-13T20:02:42.782Z,4.00
2023-05-13T20:05:12.058Z,4.60
2023-05-13T20:07:42.147Z,3.95
2023-05-13T20:10:12.550Z,4.07
2023-05-13T20:12:41.575Z,4.18
2023-05-13T20:15:11.554Z,3.95
2023-05-13T20:17:40.272Z,3.80
2023-05-13T20:20:10.684Z,4.03
2023-05-13T20:22:39.369Z,4.15
2023-05-13T20:25:11.121Z,4.03
2023-05-13T20:27:39.820Z,3.97
2023-05-13T20:30:11.374Z,4.05
2023-05-13T20:32:40.263Z,4.10
2023-05-13T20:35:10.691Z,3.80
2023-05-13T20:37:39.485Z,4.03
2023-05-13T20:40:11.386Z,3.95
2023-05-13T20:42:40.129Z,3.90
2023-05-13T20:45:10.365Z,3.40
2023-05-13T20:47:38.967Z,4.40
2023-05-13T20:50:09.635Z,4.50
2023-05-13T20:52:38.423Z,4.63
2023-05-13T20:55:11.140Z,4.40
2023-05-13T20:57:39.841Z,5.22
2023-05-13T21:00:10.908Z,5.05
2023-05-13T21:02:39.774Z,5.55
2023-05-13T21:05:09.595Z,4.70
2023-05-13T21:07:38.386Z,5.13
2023-05-13T21:10:10.339Z,5.05
2023-05-13T21:12:39.070Z,4.90
2023-05-13T21:15:11.067Z,5.53
2023-05-13T21:17:40.836Z,5.60
2023-05-13T21:20:12.184Z,5.50
2023-05-13T21:22:40.919Z,5.55
2023-05-13T21:25:11.860Z,5.40
2023-05-13T21:27:40.786Z,5.53
2023-05-13T21:30:11.141Z,5.85
2023-05-13T21:32:39.883Z,5.72
2023-05-13T21:35:09.695Z,5.88
2023-05-13T21:37:38.650Z,6.15
2023-05-13T21:40:11.115Z,6.60
2023-05-13T21:42:39.813Z,6.00
2023-05-13T21:45:10.302Z,6.63
2023-05-13T21:47:39.017Z,6.35
2023-05-13T21:50:11.037Z,5.93
2023-05-13T21:52:39.928Z,6.75
2023-05-13T21:55:11.250Z,6.47
2023-05-13T21:57:39.949Z,6.65
2023-05-13T22:00:15.188Z,7.43
2023-05-13T22:02:47.119Z,7.38
2023-05-13T22:05:16.432Z,7.30
2023-05-13T22:07:45.180Z,6.97
2023-05-13T22:10:15.502Z,7.25
2023-05-13T22:12:44.245Z,7.43
2023-05-13T22:15:13.599Z,7.07
2023-05-13T22:17:42.361Z,8.70
2023-05-13T22:20:13.068Z,7.85
2023-05-13T22:22:41.736Z,7.30
2023-05-13T22:25:11.026Z,7.82
2023-05-13T22:27:41.042Z,7.80
2023-05-13T22:30:10.874Z,8.32
2023-05-13T22:32:40.125Z,8.00
2023-05-13T22:35:10.676Z,8.77
2023-05-13T22:37:39.357Z,7.70
2023-05-13T22:40:11.579Z,8.13
2023-05-13T22:42:41.611Z,7.80
2023-05-13T22:45:12.375Z,7.88
2023-05-13T22:47:40.998Z,7.70
2023-05-13T22:50:12.346Z,7.93
2023-05-13T22:52:41.076Z,8.13
2023-05-13T22:55:11.095Z,7.30
2023-05-13T22:57:41.245Z,7.55
2023-05-13T23:00:12.299Z,7.15
2023-05-13T23:02:41.162Z,7.82
2023-05-13T23:05:10.191Z,7.53
2023-05-13T23:07:38.919Z,7.47
2023-05-13T23:10:09.009Z,7.18
2023-05-13T23:12:37.854Z,9.10
2023-05-13T23:15:11.692Z,8.60
2023-05-13T23:17:40.384Z,8.70
2023-05-13T23:20:11.034Z,8.20
2023-05-13T23:22:39.971Z,8.60
2023-05-13T23:25:10.574Z,8.45
2023-05-13T23:27:39.289Z,9.15
2023-05-13T23:30:11.709Z,8.80
2023-05-13T23:32:40.436Z,8.20
2023-05-13T23:35:10.756Z,8.15
2023-05-13T23:37:39.499Z,7.97
2023-05-13T23:40:10.067Z,8.57
2023-05-13T23:42:39.395Z,8.20
2023-05-13T23:45:11.397Z,8.52
2023-05-13T23:47:40.201Z,9.20
2023-05-13T23:50:10.126Z,8.52
2023-05-13T23:52:39.096Z,9.02
2023-05-13T23:55:09.319Z,9.40
2023-05-13T23:57:38.352Z,9.68
